Time;durP1;ratioP1;P1;durP2;ratioP2;P2;SDS_P1;SDS_P2;PMS_P1;PMS_P2;Temp;Humidity;BMP_temperature;BMP_pressure;BME280_temperature;BME280_humidity;BME280_pressure;Samples;Min_cycle;Max_cycle;Signal;HPM_P1;HPM_P2
2021/12/16 00:03:59;;;;;;;33.90;22.40;;;11.00;99.90;;;;;;5018352;28;20979;-51
2021/12/16 00:06:57;;;;;;;35.13;21.80;;;10.90;99.90;;;;;;4998377;28;20995;-51
2021/12/16 00:09:31;;;;;;;36.93;25.33;;;10.80;99.90;;;;;;4998299;28;20442;-51
2021/12/16 00:31:44;;;;;;;36.00;23.90;;;11.00;99.90;;;;;;4997252;28;20524;-52
2021/12/16 00:34:12;;;;;;;37.90;24.83;;;10.90;99.90;;;;;;4998827;28;20472;-52
2021/12/16 00:36:43;;;;;;;42.43;26.40;;;11.00;99.90;;;;;;4997143;28;20483;-52
2021/12/16 00:39:12;;;;;;;40.40;26.00;;;11.00;99.90;;;;;;4996877;28;20465;-52
2021/12/16 00:41:41;;;;;;;41.17;27.43;;;11.00;99.90;;;;;;4997216;28;20452;-52
2021/12/16 00:44:18;;;;;;;43.73;27.63;;;11.00;99.90;;;;;;4997004;28;20479;-52
2021/12/16 00:49:37;;;;;;;45.17;28.83;;;10.80;99.90;;;;;;4995384;28;20455;-52
2021/12/16 00:55:02;;;;;;;45.40;26.67;;;10.90;99.90;;;;;;4998043;28;20433;-52
2021/12/16 00:57:29;;;;;;;45.20;27.77;;;10.90;99.90;;;;;;4998227;28;20445;-52
2021/12/16 00:59:58;;;;;;;44.10;27.13;;;10.90;99.90;;;;;;4996325;28;20466;-53
2021/12/16 01:02:44;;;;;;;41.20;25.77;;;11.10;99.90;;;;;;5012769;28;20487;-51
2021/12/16 01:05:47;;;;;;;37.67;26.10;;;10.40;99.90;;;;;;5014529;28;20712;-52
2021/12/16 01:33:47;;;;;;;42.97;25.10;;;10.60;99.90;;;;;;5014104;28;20440;-53
2021/12/16 01:36:30;;;;;;;36.83;24.37;;;11.10;99.90;;;;;;5012680;28;20504;-52
2021/12/16 01:39:36;;;;;;;45.60;23.90;;;10.70;99.90;;;;;;5012414;28;21032;-52
2021/12/16 01:42:20;;;;;;;37.47;22.57;;;10.50;99.90;;;;;;5012476;28;20522;-53
2021/12/16 01:47:58;;;;;;;41.90;23.87;;;10.50;99.90;;;;;;4975221;28;20437;-53
2021/12/16 01:50:31;;;;;;;39.97;25.00;;;10.50;99.90;;;;;;5010255;28;20458;-53
2021/12/16 01:53:15;;;;;;;41.13;25.57;;;10.50;99.90;;;;;;5012805;28;20451;-53
2021/12/16 01:55:49;;;;;;;39.70;24.80;;;10.60;99.90;;;;;;5041170;23;20575;-51
2021/12/16 01:58:20;;;;;;;35.20;22.17;;;10.80;99.90;;;;;;5030982;28;20462;-50
2021/12/16 02:00:59;;;;;;;41.37;23.57;;;10.00;99.90;;;;;;5031311;28;20491;-51
2021/12/16 02:03:41;;;;;;;39.53;23.33;;;10.70;99.90;;;;;;5031257;28;20490;-51
2021/12/16 02:06:22;;;;;;;41.03;23.47;;;10.50;99.90;;;;;;5027931;28;20520;-51
2021/12/16 02:08:52;;;;;;;41.60;23.10;;;10.60;99.90;;;;;;5010966;28;20457;-52
2021/12/16 02:11:38;;;;;;;41.03;23.50;;;10.80;99.90;;;;;;5012453;28;20819;-51
2021/12/16 02:31:23;;;;;;;26.53;16.13;;;10.20;99.90;;;;;;5010967;28;20453;-50
2021/12/16 02:34:23;;;;;;;23.57;15.50;;;10.30;99.90;;;;;;5012600;28;20527;-51
2021/12/16 02:36:50;;;;;;;25.93;14.97;;;10.60;99.90;;;;;;5010898;28;20482;-51
2021/12/16 02:39:23;;;;;;;23.07;15.43;;;10.90;99.90;;;;;;5011911;28;20515;-51
2021/12/16 02:41:53;;;;;;;28.27;14.50;;;10.30;99.90;;;;;;5012102;28;21008;-51
2021/12/16 02:44:38;;;;;;;24.70;15.80;;;10.40;99.90;;;;;;5010742;28;20588;-52
2021/12/16 02:49:53;;;;;;;17.43;12.93;;;10.40;99.90;;;;;;5011696;28;20441;-51
2021/12/16 02:52:23;;;;;;;27.10;14.30;;;10.50;99.90;;;;;;5010485;28;20933;-52
2021/12/16 02:54:51;;;;;;;19.23;13.10;;;10.40;99.90;;;;;;5010487;28;20487;-51
2021/12/16 02:57:18;;;;;;;17.63;13.57;;;10.00;99.90;;;;;;5010513;28;20457;-51
2021/12/16 02:59:48;;;;;;;19.30;12.47;;;10.40;99.90;;;;;;5010240;28;20519;-51
2021/12/16 03:02:18;;;;;;;22.17;14.40;;;10.40;99.90;;;;;;5029685;28;20460;-51
2021/12/16 03:04:49;;;;;;;20.47;13.73;;;10.30;99.90;;;;;;5026951;28;21176;-51
2021/12/16 03:07:17;;;;;;;17.20;11.50;;;10.70;99.90;;;;;;5011631;28;20464;-51
2021/12/16 03:12:50;;;;;;;15.30;11.83;;;10.30;99.90;;;;;;5010819;28;20729;-52
2021/12/16 03:15:30;;;;;;;17.63;12.47;;;10.60;99.90;;;;;;5011472;28;20452;-51
2021/12/16 03:18:03;;;;;;;18.07;11.40;;;10.70;99.90;;;;;;5010117;28;20447;-50
2021/12/16 03:20:38;;;;;;;16.37;10.80;;;10.20;99.90;;;;;;5011625;28;20445;-51
2021/12/16 03:23:24;;;;;;;25.07;11.90;;;10.30;99.90;;;;;;5011091;28;20441;-51
2021/12/16 03:26:08;;;;;;;18.53;11.40;;;10.30;99.90;;;;;;5010057;28;20523;-52
2021/12/16 03:29:02;;;;;;;14.00;11.97;;;9.80;99.90;;;;;;5011309;28;20933;-51
2021/12/16 03:34:44;;;;;;;16.87;11.20;;;10.30;99.90;;;;;;4973264;28;20442;-52
2021/12/16 03:37:15;;;;;;;15.77;11.50;;;10.70;99.90;;;;;;5009919;28;20516;-51
2021/12/16 03:39:46;;;;;;;22.97;11.67;;;10.40;99.90;;;;;;5011048;28;20444;-51
2021/12/16 03:42:17;;;;;;;18.70;12.37;;;10.20;99.90;;;;;;5009969;28;20507;-51
2021/12/16 03:44:57;;;;;;;19.30;10.97;;;10.40;99.90;;;;;;5009716;28;20484;-51
2021/12/16 03:47:35;;;;;;;17.50;11.47;;;10.20;99.90;;;;;;5009729;28;20505;-50
2021/12/16 03:50:06;;;;;;;17.43;11.57;;;10.40;99.90;;;;;;5009923;28;20568;-51
2021/12/16 03:52:33;;;;;;;16.60;11.33;;;10.00;99.90;;;;;;5009682;28;20452;-52
2021/12/16 03:55:00;;;;;;;17.50;10.87;;;10.00;99.90;;;;;;5009593;28;20456;-51
2021/12/16 03:57:30;;;;;;;20.30;12.60;;;10.40;99.90;;;;;;5009746;28;20460;-51
2021/12/16 03:59:59;;;;;;;15.07;10.47;;;10.30;99.90;;;;;;5010126;28;20452;-50
2021/12/16 04:02:46;;;;;;;24.80;11.90;;;10.30;99.90;;;;;;5030871;28;20446;-51
2021/12/16 04:05:19;;;;;;;18.77;10.93;;;10.00;99.90;;;;;;5025977;28;20489;-52
2021/12/16 04:07:48;;;;;;;17.03;11.00;;;10.40;99.90;;;;;;5009282;28;20463;-52
2021/12/16 04:10:35;;;;;;;18.20;11.40;;;10.20;99.90;;;;;;5010069;28;20427;-50
2021/12/16 04:13:08;;;;;;;17.13;11.87;;;10.80;99.90;;;;;;5009805;28;20434;-51
2021/12/16 04:15:36;;;;;;;17.63;12.00;;;10.20;99.90;;;;;;5011056;28;20441;-50
2021/12/16 04:18:04;;;;;;;17.07;11.90;;;10.30;99.90;;;;;;5009298;28;20420;-52
2021/12/16 04:20:31;;;;;;;14.90;11.07;;;10.30;99.90;;;;;;5009670;28;20457;-51
2021/12/16 04:23:00;;;;;;;15.17;9.97;;;10.30;99.90;;;;;;5009729;28;20862;-50
2021/12/16 04:25:30;;;;;;;16.27;11.30;;;10.10;99.90;;;;;;5010016;28;20575;-51
2021/12/16 04:28:00;;;;;;;14.80;11.07;;;10.00;99.90;;;;;;5009269;28;20453;-50
2021/12/16 04:30:29;;;;;;;15.97;11.70;;;9.80;99.90;;;;;;5011847;28;20811;-51
2021/12/16 04:32:58;;;;;;;16.90;12.27;;;10.60;99.90;;;;;;5009894;28;20431;-51
2021/12/16 04:35:29;;;;;;;16.07;10.63;;;10.10;99.90;;;;;;5010018;28;20564;-50
2021/12/16 04:37:56;;;;;;;14.60;10.87;;;10.20;99.90;;;;;;5013203;28;20526;-50
2021/12/16 04:40:26;;;;;;;18.23;11.20;;;10.60;99.90;;;;;;5013857;28;20593;-51
2021/12/16 04:43:00;;;;;;;18.63;11.20;;;10.10;99.90;;;;;;5013581;28;20821;-51
2021/12/16 04:45:30;;;;;;;14.90;11.93;;;10.30;99.90;;;;;;5013608;28;20543;-51
2021/12/16 04:47:59;;;;;;;18.37;10.80;;;10.30;99.90;;;;;;5012764;28;20447;-51
2021/12/16 04:50:31;;;;;;;18.50;11.80;;;10.10;99.90;;;;;;5013271;28;20522;-51
2021/12/16 04:52:57;;;;;;;17.37;11.70;;;10.40;99.90;;;;;;5014626;28;20436;-51
2021/12/16 04:55:25;;;;;;;20.40;13.10;;;10.20;99.90;;;;;;5013183;28;20451;-51
2021/12/16 04:57:52;;;;;;;16.73;12.33;;;10.30;99.90;;;;;;5012551;28;20903;-51
2021/12/16 05:00:23;;;;;;;14.83;10.17;;;10.20;99.90;;;;;;5016510;28;20972;-51
2021/12/16 05:03:01;;;;;;;20.77;12.57;;;10.40;99.90;;;;;;5032730;28;20573;-51
2021/12/16 05:05:34;;;;;;;15.83;12.37;;;10.60;99.90;;;;;;5029276;28;20836;-51
2021/12/16 05:08:01;;;;;;;17.23;12.33;;;10.60;99.90;;;;;;5012393;28;20454;-52
2021/12/16 05:10:35;;;;;;;21.30;12.73;;;10.20;99.90;;;;;;5012907;28;20452;-50
2021/12/16 05:13:11;;;;;;;15.47;12.10;;;9.70;99.90;;;;;;5012927;28;20467;-51
2021/12/16 05:15:41;;;;;;;17.00;12.03;;;10.30;99.90;;;;;;5012543;28;20471;-51
2021/12/16 05:18:13;;;;;;;20.10;12.53;;;10.00;99.90;;;;;;5012070;28;20802;-50
2021/12/16 05:20:48;;;;;;;18.00;12.97;;;10.40;99.90;;;;;;5013066;28;20479;-51
2021/12/16 05:26:16;;;;;;;17.00;12.93;;;9.70;99.90;;;;;;5013090;28;20498;-51
2021/12/16 05:28:52;;;;;;;18.50;13.10;;;9.80;99.90;;;;;;5011898;28;20466;-50
2021/12/16 05:31:20;;;;;;;21.97;13.73;;;9.50;99.90;;;;;;5013822;28;20448;-51
2021/12/16 05:33:52;;;;;;;20.57;14.23;;;10.20;99.90;;;;;;5013757;28;20456;-51
2021/12/16 05:36:19;;;;;;;18.73;13.17;;;10.20;99.90;;;;;;5012877;28;20472;-51
2021/12/16 05:38:47;;;;;;;22.50;14.93;;;9.90;99.90;;;;;;5030002;28;20564;-51
2021/12/16 05:41:18;;;;;;;24.70;15.30;;;10.10;99.90;;;;;;5012503;28;20467;-51
2021/12/16 05:43:48;;;;;;;18.77;14.23;;;9.50;99.90;;;;;;5013356;28;20594;-51
2021/12/16 05:46:17;;;;;;;23.73;14.73;;;10.10;99.90;;;;;;5011744;28;20439;-51
2021/12/16 05:48:46;;;;;;;28.30;16.70;;;10.20;99.90;;;;;;5011388;28;20424;-50
2021/12/16 05:51:18;;;;;;;26.73;17.30;;;10.20;99.90;;;;;;5011808;28;20976;-49
2021/12/16 05:53:47;;;;;;;24.10;15.20;;;9.80;99.90;;;;;;5013121;28;20432;-50
2021/12/16 05:56:36;;;;;;;21.27;16.37;;;9.90;99.90;;;;;;5011373;28;20537;-50
2021/12/16 05:59:04;;;;;;;26.10;13.40;;;10.00;99.90;;;;;;5011175;28;20449;-51
2021/12/16 06:01:32;;;;;;;22.27;14.53;;;9.90;99.90;;;;;;5021695;28;20455;-51
2021/12/16 06:04:00;;;;;;;24.90;15.43;;;10.10;99.90;;;;;;5028122;28;20488;-51
2021/12/16 06:06:30;;;;;;;19.03;14.00;;;9.80;99.90;;;;;;5027977;28;20567;-50
2021/12/16 06:08:58;;;;;;;19.20;14.50;;;9.40;99.90;;;;;;5027693;28;20470;-51
2021/12/16 06:11:30;;;;;;;23.27;14.13;;;9.90;99.90;;;;;;5012343;28;20440;-52
2021/12/16 06:14:09;;;;;;;21.10;14.00;;;9.90;99.90;;;;;;5012505;28;20468;-51
2021/12/16 06:22:25;;;;;;;25.07;15.30;;;9.30;99.90;;;;;;5012315;28;20917;-50
2021/12/16 06:27:38;;;;;;;24.30;16.17;;;10.10;99.90;;;;;;5012112;28;20433;-51
2021/12/16 06:30:08;;;;;;;28.33;16.10;;;10.00;99.90;;;;;;5012251;28;20448;-51
2021/12/16 06:32:35;;;;;;;25.20;16.37;;;9.70;99.90;;;;;;5012133;28;20828;-51
2021/12/16 06:35:03;;;;;;;22.00;14.03;;;9.70;99.90;;;;;;5011843;28;20435;-50
2021/12/16 06:37:31;;;;;;;22.43;15.03;;;10.20;99.90;;;;;;5011752;28;20868;-51
2021/12/16 06:39:59;;;;;;;22.00;13.37;;;9.60;99.90;;;;;;5026769;28;20477;-50
2021/12/16 06:42:35;;;;;;;25.50;14.43;;;10.20;99.90;;;;;;5026529;28;20522;-51
2021/12/16 06:45:06;;;;;;;22.30;15.43;;;9.40;99.90;;;;;;5026305;28;20475;-49
2021/12/16 06:47:41;;;;;;;20.37;14.50;;;9.80;99.90;;;;;;5011386;28;20517;-50
2021/12/16 06:50:09;;;;;;;21.30;13.80;;;10.20;99.90;;;;;;5011661;28;20534;-51
2021/12/16 06:52:44;;;;;;;20.23;14.97;;;9.70;99.90;;;;;;5011348;28;20866;-52
2021/12/16 06:55:17;;;;;;;25.57;15.50;;;9.80;99.90;;;;;;5026240;28;20979;-50
2021/12/16 06:57:51;;;;;;;21.53;14.90;;;9.30;99.90;;;;;;5010672;28;20460;-50
2021/12/16 07:00:29;;;;;;;26.43;14.60;;;10.10;99.90;;;;;;5014302;28;20880;-50
2021/12/16 07:02:59;;;;;;;18.67;13.87;;;9.80;99.90;;;;;;5030869;28;20502;-49
2021/12/16 07:05:30;;;;;;;25.00;15.60;;;9.50;99.90;;;;;;5030772;28;20462;-51
2021/12/16 07:07:59;;;;;;;22.50;14.33;;;10.00;99.90;;;;;;5031227;28;20871;-50
2021/12/16 07:10:28;;;;;;;20.30;13.43;;;9.90;99.90;;;;;;5031123;28;20406;-51
2021/12/16 07:12:56;;;;;;;24.20;15.60;;;10.40;99.90;;;;;;5030970;28;20439;-52
2021/12/16 07:15:26;;;;;;;26.17;15.63;;;9.90;99.90;;;;;;5030994;28;20479;-51
2021/12/16 07:17:55;;;;;;;24.37;15.10;;;10.00;99.90;;;;;;5030559;28;20428;-51
2021/12/16 07:20:25;;;;;;;20.90;14.40;;;9.60;99.90;;;;;;5030638;28;20451;-52
2021/12/16 07:22:51;;;;;;;21.53;15.43;;;9.60;99.90;;;;;;5030660;28;20522;-50
2021/12/16 07:25:19;;;;;;;22.57;14.30;;;10.00;99.90;;;;;;5030506;28;20797;-51
2021/12/16 07:27:46;;;;;;;26.20;13.77;;;10.30;99.90;;;;;;5030754;28;20776;-52
2021/12/16 07:30:15;;;;;;;21.30;13.10;;;10.30;99.90;;;;;;5030454;28;20807;-51
2021/12/16 07:32:43;;;;;;;21.40;14.70;;;9.80;99.90;;;;;;5030670;28;20428;-52
2021/12/16 07:35:13;;;;;;;21.53;15.13;;;9.90;99.90;;;;;;5030725;28;20916;-52
2021/12/16 07:37:40;;;;;;;28.03;15.77;;;10.20;99.90;;;;;;5030104;28;20950;-51
2021/12/16 07:40:09;;;;;;;19.93;13.33;;;9.70;99.90;;;;;;5030430;28;20447;-50
2021/12/16 07:42:46;;;;;;;25.00;15.03;;;9.60;99.90;;;;;;5030729;28;20743;-51
2021/12/16 07:45:14;;;;;;;21.53;13.17;;;9.80;99.90;;;;;;5029130;28;20471;-52
2021/12/16 07:47:41;;;;;;;19.90;13.17;;;9.80;99.90;;;;;;5029879;28;20447;-52
2021/12/16 07:50:09;;;;;;;18.60;12.67;;;9.30;99.90;;;;;;5030544;28;20431;-50
2021/12/16 07:52:38;;;;;;;23.27;13.77;;;9.90;99.90;;;;;;5030444;28;20450;-51
2021/12/16 07:55:06;;;;;;;18.67;13.43;;;10.10;99.90;;;;;;5030467;28;20497;-52
2021/12/16 07:57:33;;;;;;;25.00;14.37;;;9.60;99.90;;;;;;5037179;22;20500;-52
2021/12/16 08:00:01;;;;;;;21.07;14.43;;;9.30;99.90;;;;;;5011045;28;20444;-53
2021/12/16 08:02:27;;;;;;;23.50;14.90;;;9.80;99.90;;;;;;5011420;28;20445;-53
2021/12/16 08:04:54;;;;;;;32.00;18.63;;;9.80;99.90;;;;;;5011299;28;20925;-52
2021/12/16 08:07:21;;;;;;;21.63;13.57;;;9.90;99.90;;;;;;5011300;28;20432;-52
2021/12/16 08:09:50;;;;;;;20.50;14.63;;;10.00;99.90;;;;;;5011708;28;20440;-52
2021/12/16 08:12:17;;;;;;;21.53;14.13;;;9.70;99.90;;;;;;5016044;28;20428;-52
2021/12/16 08:14:45;;;;;;;25.47;14.33;;;9.80;99.90;;;;;;5015347;28;20965;-52
2021/12/16 08:17:15;;;;;;;21.97;14.97;;;10.00;99.90;;;;;;5015221;28;20506;-51
2021/12/16 08:19:42;;;;;;;27.20;15.77;;;10.00;99.90;;;;;;5015206;28;20951;-51
2021/12/16 08:22:09;;;;;;;22.63;17.47;;;9.80;99.90;;;;;;5014319;28;20439;-51
2021/12/16 08:24:36;;;;;;;23.60;13.70;;;10.20;99.90;;;;;;5014316;28;20542;-52
2021/12/16 08:27:03;;;;;;;22.50;13.33;;;10.00;99.90;;;;;;5011716;28;20479;-53
2021/12/16 08:29:29;;;;;;;16.87;12.10;;;9.80;99.90;;;;;;5014280;28;20448;-52
2021/12/16 08:31:57;;;;;;;21.20;14.10;;;10.10;99.90;;;;;;5011393;28;20452;-51
2021/12/16 08:34:27;;;;;;;17.77;13.10;;;10.10;99.90;;;;;;4994922;28;20433;-52
2021/12/16 08:36:54;;;;;;;20.37;11.77;;;10.10;99.90;;;;;;5013189;28;20497;-52
2021/12/16 08:39:22;;;;;;;23.00;14.10;;;10.10;99.90;;;;;;5013796;28;20433;-52
2021/12/16 08:41:53;;;;;;;25.40;12.57;;;9.80;99.90;;;;;;5014352;28;20735;-52
2021/12/16 08:44:20;;;;;;;24.03;12.80;;;9.80;99.90;;;;;;5013369;28;20444;-50
2021/12/16 08:46:50;;;;;;;16.30;11.90;;;9.80;99.90;;;;;;5013754;28;20980;-52
2021/12/16 08:49:17;;;;;;;20.00;13.00;;;9.50;99.90;;;;;;5013714;28;20404;-52
2021/12/16 08:51:48;;;;;;;21.97;12.37;;;9.60;99.90;;;;;;5013670;28;20840;-51
2021/12/16 08:54:15;;;;;;;21.07;14.00;;;10.50;99.90;;;;;;5012445;28;20431;-51
2021/12/16 08:56:43;;;;;;;21.97;13.63;;;10.00;99.90;;;;;;5013248;28;20864;-50
2021/12/16 08:59:10;;;;;;;20.03;12.33;;;9.90;99.90;;;;;;5012917;28;20444;-52
2021/12/16 09:01:41;;;;;;;16.10;11.13;;;9.90;99.90;;;;;;5012221;28;20448;-50
2021/12/16 09:04:08;;;;;;;20.60;13.00;;;10.10;99.90;;;;;;5012995;28;20893;-51
2021/12/16 09:06:35;;;;;;;20.00;12.70;;;10.10;99.90;;;;;;5012775;28;20490;-51
2021/12/16 09:09:04;;;;;;;23.27;11.80;;;9.90;99.90;;;;;;5013014;28;20447;-51
2021/12/16 09:11:36;;;;;;;16.90;11.77;;;9.90;99.90;;;;;;5013556;28;20440;-52
2021/12/16 09:14:03;;;;;;;16.33;11.63;;;9.70;99.90;;;;;;5014087;28;20500;-53
2021/12/16 09:16:34;;;;;;;20.40;12.73;;;10.10;99.90;;;;;;5013973;28;20456;-50
2021/12/16 09:19:02;;;;;;;23.13;13.20;;;10.00;99.90;;;;;;5013211;28;20473;-51
2021/12/16 09:21:34;;;;;;;22.10;12.63;;;10.20;99.90;;;;;;5012682;28;20441;-51
2021/12/16 09:24:03;;;;;;;17.13;12.10;;;10.20;99.90;;;;;;5011992;28;20510;-50
2021/12/16 09:26:30;;;;;;;15.83;11.87;;;10.00;99.90;;;;;;5013453;28;20572;-50
2021/12/16 09:28:57;;;;;;;16.20;11.13;;;10.00;99.90;;;;;;5013210;28;20440;-50
2021/12/16 09:31:27;;;;;;;19.13;11.83;;;10.10;99.90;;;;;;5013940;28;20419;-49
2021/12/16 09:33:56;;;;;;;16.83;11.70;;;10.10;99.90;;;;;;5013569;28;20535;-50
2021/12/16 09:36:25;;;;;;;15.33;11.10;;;10.10;99.90;;;;;;5014917;28;20462;-50
2021/12/16 09:38:54;;;;;;;16.77;11.17;;;9.70;99.90;;;;;;5014722;28;20456;-52
2021/12/16 09:41:22;;;;;;;20.20;10.63;;;10.40;99.90;;;;;;5013546;28;20447;-52
2021/12/16 09:43:51;;;;;;;19.67;12.83;;;10.10;99.90;;;;;;5011712;28;20432;-51
2021/12/16 09:46:20;;;;;;;14.63;9.87;;;10.00;99.90;;;;;;5012380;28;20484;-51
2021/12/16 09:48:47;;;;;;;17.90;12.33;;;10.00;99.90;;;;;;5011829;28;20512;-51
2021/12/16 09:51:21;;;;;;;21.53;13.87;;;10.10;99.90;;;;;;5012279;28;20443;-53
2021/12/16 09:53:49;;;;;;;14.23;11.87;;;10.10;99.90;;;;;;5012628;28;20439;-49
2021/12/16 09:56:16;;;;;;;18.73;12.50;;;10.20;99.90;;;;;;5012165;28;20464;-49
2021/12/16 09:58:49;;;;;;;15.87;12.13;;;10.00;99.90;;;;;;5012646;28;20785;-49
2021/12/16 10:01:16;;;;;;;18.13;12.80;;;9.80;99.90;;;;;;5012993;28;20448;-51
2021/12/16 10:03:46;;;;;;;16.93;13.07;;;10.10;99.90;;;;;;5016332;28;20462;-49
2021/12/16 10:06:13;;;;;;;17.63;12.27;;;10.10;99.90;;;;;;4996118;28;20495;-52
2021/12/16 10:08:40;;;;;;;18.70;12.60;;;10.10;99.90;;;;;;4992983;28;20923;-51
2021/12/16 10:11:07;;;;;;;17.10;12.40;;;9.90;99.90;;;;;;5009286;28;20862;-49
2021/12/16 10:13:43;;;;;;;19.10;12.37;;;10.30;99.90;;;;;;5016614;28;20996;-50
2021/12/16 10:18:55;;;;;;;20.10;10.30;;;10.30;99.90;;;;;;5007698;28;20582;-49
2021/12/16 10:21:23;;;;;;;16.00;10.30;;;10.00;99.90;;;;;;5032737;28;20410;-50
2021/12/16 10:23:51;;;;;;;16.83;10.60;;;10.20;99.90;;;;;;5032574;28;20427;-50
2021/12/16 10:26:20;;;;;;;16.73;10.80;;;9.90;99.90;;;;;;5032495;28;20494;-49
2021/12/16 10:28:49;;;;;;;14.83;10.10;;;10.50;99.90;;;;;;5013691;28;20936;-51
2021/12/16 10:31:21;;;;;;;13.97;10.40;;;10.30;99.90;;;;;;5012422;28;20412;-48
2021/12/16 10:33:52;;;;;;;14.77;10.10;;;10.40;99.90;;;;;;5012508;28;20437;-52
2021/12/16 10:36:22;;;;;;;17.10;10.03;;;10.30;99.90;;;;;;5012115;28;21038;-50
2021/12/16 10:38:51;;;;;;;13.30;10.73;;;10.40;99.90;;;;;;5012905;28;20437;-50
2021/12/16 10:41:21;;;;;;;15.00;10.67;;;10.40;99.90;;;;;;5011624;28;20459;-49
2021/12/16 10:43:50;;;;;;;15.23;9.60;;;10.30;99.90;;;;;;5005120;28;20448;-49
2021/12/16 10:46:21;;;;;;;10.83;8.00;;;10.20;99.90;;;;;;5011720;28;20957;-50
2021/12/16 10:48:50;;;;;;;15.07;9.60;;;10.20;99.90;;;;;;5011841;28;20456;-49
2021/12/16 10:51:25;;;;;;;11.40;8.60;;;10.00;99.90;;;;;;5011165;28;20472;-51
2021/12/16 10:54:13;;;;;;;13.10;9.20;;;10.80;99.90;;;;;;5011566;28;20469;-50
2021/12/16 10:56:46;;;;;;;12.63;7.77;;;10.50;99.90;;;;;;5011911;28;20840;-50
2021/12/16 10:59:16;;;;;;;10.07;7.60;;;10.30;99.90;;;;;;5011325;28;20432;-51
2021/12/16 11:01:56;;;;;;;11.63;8.40;;;10.60;99.90;;;;;;5011615;28;20443;-50
2021/12/16 11:04:27;;;;;;;9.03;6.50;;;10.60;99.90;;;;;;5030536;28;20439;-50
2021/12/16 11:06:57;;;;;;;9.97;8.10;;;10.60;99.90;;;;;;5030855;28;20483;-51
2021/12/16 11:09:39;;;;;;;9.10;7.63;;;10.60;99.90;;;;;;5031705;28;20436;-48
2021/12/16 11:12:08;;;;;;;11.03;6.77;;;10.70;99.90;;;;;;5031558;28;20498;-50
2021/12/16 11:14:35;;;;;;;10.13;6.90;;;10.80;99.90;;;;;;5031899;28;20432;-50
2021/12/16 11:17:06;;;;;;;10.15;7.65;;;10.50;99.90;;;;;;5031258;28;20448;-50
2021/12/16 11:19:46;;;;;;;10.37;7.70;;;11.30;99.90;;;;;;5030708;28;20445;-50
2021/12/16 11:22:16;;;;;;;10.00;7.33;;;10.80;99.90;;;;;;5031659;28;20429;-49
2021/12/16 11:24:43;;;;;;;8.63;7.07;;;11.10;99.90;;;;;;5031344;28;20447;-50
2021/12/16 11:27:29;;;;;;;8.00;6.20;;;11.00;99.90;;;;;;5031347;28;20484;-49
2021/12/16 11:29:58;;;;;;;9.20;6.30;;;11.20;99.90;;;;;;5025769;28;20456;-50
2021/12/16 11:32:42;;;;;;;8.53;6.10;;;11.40;99.90;;;;;;5011563;28;20436;-49
2021/12/16 11:35:31;;;;;;;7.80;6.97;;;11.00;99.90;;;;;;5011242;28;20457;-49
2021/12/16 11:38:01;;;;;;;7.57;5.73;;;11.10;99.90;;;;;;5011119;28;20461;-52
2021/12/16 11:40:27;;;;;;;6.83;5.53;;;11.10;99.90;;;;;;5011290;28;20431;-50
2021/12/16 11:43:03;;;;;;;7.30;6.50;;;10.80;99.90;;;;;;5011917;28;20810;-50
2021/12/16 11:45:33;;;;;;;8.40;6.30;;;11.20;99.90;;;;;;5010901;28;20440;-50
2021/12/16 11:48:01;;;;;;;8.43;6.00;;;11.10;99.90;;;;;;5009598;28;20984;-50
2021/12/16 11:50:35;;;;;;;9.63;6.60;;;11.20;99.90;;;;;;5015890;28;20843;-50
2021/12/16 11:53:02;;;;;;;8.13;5.83;;;11.10;99.90;;;;;;5013553;28;20805;-50
2021/12/16 11:55:29;;;;;;;8.37;5.30;;;11.50;99.90;;;;;;5015493;28;20445;-49
2021/12/16 11:58:01;;;;;;;7.80;6.53;;;11.10;99.90;;;;;;5011254;28;20458;-49
2021/12/16 12:00:30;;;;;;;6.10;4.90;;;11.30;99.90;;;;;;5011790;28;20440;-50
2021/12/16 12:03:01;;;;;;;6.50;4.80;;;10.80;99.90;;;;;;5022246;28;20524;-49
2021/12/16 12:05:30;;;;;;;8.53;5.33;;;11.00;99.90;;;;;;5012683;28;20450;-50
2021/12/16 12:08:03;;;;;;;8.63;5.90;;;11.50;99.90;;;;;;5010885;28;20487;-50
2021/12/16 12:10:36;;;;;;;6.33;5.00;;;11.10;99.90;;;;;;5012191;28;20459;-49
2021/12/16 12:13:06;;;;;;;7.43;5.40;;;10.80;99.90;;;;;;5011944;28;20433;-50
2021/12/16 12:15:34;;;;;;;9.77;5.40;;;11.20;99.90;;;;;;5011879;28;20879;-51
2021/12/16 12:18:04;;;;;;;7.20;5.33;;;11.20;99.90;;;;;;5012023;28;20539;-50
2021/12/16 12:20:36;;;;;;;6.43;4.23;;;11.10;99.90;;;;;;5013030;28;20860;-49
2021/12/16 12:23:05;;;;;;;7.33;4.60;;;10.70;99.90;;;;;;5012542;28;21127;-49
2021/12/16 12:25:31;;;;;;;5.40;3.90;;;10.50;99.90;;;;;;5012336;28;20976;-49
2021/12/16 12:27:58;;;;;;;6.77;4.53;;;10.60;99.90;;;;;;5011158;28;20926;-49
2021/12/16 12:30:25;;;;;;;7.47;4.63;;;11.00;99.90;;;;;;5011455;28;20448;-49
2021/12/16 12:32:52;;;;;;;6.47;4.73;;;10.80;99.90;;;;;;5011823;28;20440;-50
2021/12/16 12:35:24;;;;;;;9.40;5.40;;;10.50;99.90;;;;;;5011393;28;20453;-50
2021/12/16 12:37:53;;;;;;;5.97;4.83;;;10.50;99.90;;;;;;5010941;28;20446;-49
2021/12/16 12:40:23;;;;;;;9.37;4.87;;;10.20;99.90;;;;;;5009943;28;20945;-49
2021/12/16 12:42:52;;;;;;;8.50;4.23;;;10.80;99.90;;;;;;5010930;28;20431;-50
2021/12/16 12:45:23;;;;;;;9.27;6.53;;;10.50;99.90;;;;;;5010376;28;20451;-50
2021/12/16 12:47:55;;;;;;;9.47;4.87;;;10.50;99.90;;;;;;5010342;28;20575;-49
2021/12/16 12:50:25;;;;;;;6.87;4.50;;;10.50;99.90;;;;;;5011303;28;20895;-50
2021/12/16 12:52:54;;;;;;;7.20;4.67;;;10.40;99.90;;;;;;5011047;28;20445;-49
2021/12/16 12:55:29;;;;;;;10.30;4.17;;;10.20;99.90;;;;;;5012961;28;20453;-50
2021/12/16 12:58:03;;;;;;;6.83;4.30;;;10.40;99.90;;;;;;5012689;28;20432;-49
2021/12/16 13:00:34;;;;;;;8.63;4.30;;;10.40;99.90;;;;;;5014134;28;20761;-50
2021/12/16 13:03:04;;;;;;;8.67;4.80;;;10.30;99.90;;;;;;5014534;28;20460;-50
2021/12/16 13:05:33;;;;;;;8.83;4.37;;;10.40;99.90;;;;;;5014381;28;20403;-49
2021/12/16 13:08:03;;;;;;;10.17;4.40;;;10.30;99.90;;;;;;5013845;28;20486;-50
2021/12/16 13:10:35;;;;;;;7.77;4.90;;;10.50;99.90;;;;;;5014525;28;20529;-49
2021/12/16 13:13:30;;;;;;;4.53;3.83;;;10.80;99.90;;;;;;5014171;28;20500;-51
2021/12/16 13:16:19;;;;;;;9.37;4.97;;;10.30;99.90;;;;;;5014487;28;20468;-49
2021/12/16 13:24:55;;;;;;;9.77;4.43;;;10.20;99.90;;;;;;5014117;28;20449;-51
2021/12/16 13:27:34;;;;;;;8.70;6.20;;;10.90;99.90;;;;;;5014015;28;21032;-49
2021/12/16 13:30:16;;;;;;;16.90;6.17;;;10.30;99.90;;;;;;5014055;28;20872;-50
2021/12/16 13:33:12;;;;;;;16.50;6.40;;;9.90;99.90;;;;;;5012200;28;20544;-48
2021/12/16 13:35:47;;;;;;;6.30;3.63;;;10.20;99.90;;;;;;5013619;28;20499;-51
2021/12/16 13:38:17;;;;;;;8.43;3.90;;;10.20;99.90;;;;;;5013967;28;20447;-50
2021/12/16 13:40:45;;;;;;;16.03;4.87;;;10.20;99.90;;;;;;5014194;28;20440;-49
2021/12/16 13:43:22;;;;;;;10.37;5.17;;;10.60;99.90;;;;;;5014166;28;20447;-49
2021/12/16 13:46:06;;;;;;;9.97;4.53;;;9.60;99.90;;;;;;5014212;28;20456;-48
2021/12/16 13:48:48;;;;;;;6.47;4.27;;;10.30;99.90;;;;;;5013303;28;20525;-48
2021/12/16 14:00:40;;;;;;;11.40;4.63;;;10.20;99.90;;;;;;5012514;28;20921;-51
2021/12/16 14:02:59;;;;;;;10.77;4.40;;;10.00;99.90;;;;;;4994043;28;20472;-52
2021/12/16 14:05:43;;;;;;;8.73;5.10;;;10.00;99.90;;;;;;5011149;28;20444;-51
2021/12/16 14:08:13;;;;;;;9.93;5.17;;;10.00;99.90;;;;;;4991139;28;20535;-51
2021/12/16 14:10:55;;;;;;;9.60;5.23;;;10.00;99.90;;;;;;4992174;28;20476;-50
2021/12/16 14:14:09;;;;;;;8.90;5.67;;;9.80;99.90;;;;;;4991951;28;20957;-51
2021/12/16 14:16:55;;;;;;;6.67;3.70;;;10.00;99.90;;;;;;4991158;28;20445;-50
2021/12/16 14:25:16;;;;;;;8.80;3.73;;;9.90;99.90;;;;;;4992600;28;20465;-52
2021/12/16 14:42:04;;;;;;;9.20;4.67;;;9.90;99.90;;;;;;4989240;28;20819;-52
2021/12/16 14:47:56;;;;;;;11.00;5.30;;;9.70;99.90;;;;;;4990762;28;20550;-51
2021/12/16 14:50:25;;;;;;;7.80;4.70;;;9.50;99.90;;;;;;4992093;28;20473;-51
2021/12/16 14:52:52;;;;;;;7.40;4.13;;;10.00;99.90;;;;;;4991234;28;20900;-53
2021/12/16 14:55:20;;;;;;;11.33;4.70;;;9.50;99.90;;;;;;4991574;28;20922;-52
2021/12/16 14:57:49;;;;;;;8.83;4.27;;;9.60;99.90;;;;;;4991354;28;20461;-54
2021/12/16 15:00:28;;;;;;;8.40;4.10;;;9.20;99.90;;;;;;4991894;28;20921;-52
2021/12/16 15:03:02;;;;;;;7.70;4.90;;;9.60;99.90;;;;;;4990936;28;20441;-52
2021/12/16 15:05:34;;;;;;;12.70;4.53;;;9.30;99.90;;;;;;4991353;28;20567;-51
2021/12/16 15:08:06;;;;;;;11.40;3.93;;;9.50;99.90;;;;;;4989956;28;21048;-51
2021/12/16 15:10:33;;;;;;;10.50;4.87;;;9.50;99.90;;;;;;4991402;28;20920;-51
2021/12/16 15:13:06;;;;;;;12.43;4.93;;;9.50;99.90;;;;;;4991623;28;20437;-51
2021/12/16 15:15:42;;;;;;;10.03;4.47;;;8.80;99.90;;;;;;4991690;28;20917;-50